Time;durP1;ratioP1;P1;durP2;ratioP2;P2;SDS_P1;SDS_P2;PMS_P1;PMS_P2;Temp;Humidity;BMP_temperature;BMP_pressure;BME280_temperature;BME280_humidity;BME280_pressure;Samples;Min_cycle;Max_cycle;Signal;HPM_P1;HPM_P2
2023/08/18 00:01:29;;;;;;;9.43;7.43;;;;;;;21.67;73.09;101184.25;5015640;28;20259;-72
2023/08/18 00:03:56;;;;;;;8.30;7.43;;;;;;;21.65;74.64;101181.19;5016161;28;20614;-72
2023/08/18 00:06:24;;;;;;;8.17;7.37;;;;;;;21.62;73.73;101181.94;5018481;28;20351;-72
2023/08/18 00:08:50;;;;;;;8.87;7.97;;;;;;;21.59;74.35;101180.03;5011354;28;20226;-71
2023/08/18 00:11:17;;;;;;;8.43;7.57;;;;;;;21.56;73.79;101177.31;5014790;28;20219;-72
2023/08/18 00:13:43;;;;;;;8.97;8.03;;;;;;;21.52;74.12;101176.59;5014010;28;20541;-72
2023/08/18 00:16:10;;;;;;;10.17;7.87;;;;;;;21.48;74.88;101173.88;5014341;28;20212;-72
2023/08/18 00:18:36;;;;;;;9.23;8.33;;;;;;;21.45;74.99;101171.19;5014566;28;20927;-72
2023/08/18 00:21:02;;;;;;;10.90;8.53;;;;;;;21.43;74.63;101166.19;5019619;28;20220;-72
2023/08/18 00:23:30;;;;;;;9.40;8.40;;;;;;;21.40;74.05;101168.88;5016697;28;20207;-71
2023/08/18 00:25:56;;;;;;;9.70;8.77;;;;;;;21.39;76.32;101170.81;5014037;28;20212;-72
2023/08/18 00:28:23;;;;;;;11.83;9.00;;;;;;;21.35;75.96;101163.88;5012539;28;20208;-72
2023/08/18 00:30:50;;;;;;;10.07;8.40;;;;;;;21.34;75.95;101173.09;5023207;28;21546;-72
2023/08/18 00:33:16;;;;;;;9.00;8.20;;;;;;;21.31;74.94;101160.47;5030208;28;20610;-72
2023/08/18 00:35:42;;;;;;;11.27;7.73;;;;;;;21.29;75.31;101165.44;5010465;28;20214;-72
2023/08/18 00:38:09;;;;;;;8.50;7.70;;;;;;;21.26;74.64;101169.66;5013849;28;20209;-71
2023/08/18 00:40:36;;;;;;;12.50;8.00;;;;;;;21.22;74.85;101165.44;5014496;28;20228;-72
2023/08/18 00:43:04;;;;;;;10.13;9.13;;;;;;;21.21;75.32;101174.66;5011732;28;20235;-72
2023/08/18 00:45:31;;;;;;;8.03;7.23;;;;;;;21.16;74.92;101178.47;5013729;28;20208;-72
2023/08/18 00:47:58;;;;;;;9.57;8.57;;;;;;;21.14;75.05;101172.72;5013379;28;20208;-72
2023/08/18 00:50:26;;;;;;;9.40;7.90;;;;;;;21.11;74.37;101173.47;5014789;28;20208;-72
2023/08/18 00:52:59;;;;;;;9.20;8.13;;;;;;;21.10;75.80;101176.53;5013129;28;20410;-71
2023/08/18 00:55:27;;;;;;;10.60;8.40;;;;;;;21.05;74.37;101172.31;5012957;28;20211;-72
2023/08/18 00:57:56;;;;;;;9.20;8.30;;;;;;;21.04;76.01;101167.31;5016185;28;20765;-72
2023/08/18 01:00:24;;;;;;;9.03;8.07;;;;;;;21.00;75.04;101170.00;5014486;28;20216;-72
2023/08/18 01:02:51;;;;;;;10.80;7.53;;;;;;;20.96;75.12;101158.47;5013923;28;20288;-72
2023/08/18 01:05:18;;;;;;;10.03;8.10;;;;;;;20.94;75.60;101165.38;5018796;28;20236;-72
2023/08/18 01:07:44;;;;;;;9.73;7.97;;;;;;;20.91;75.13;101161.53;5015937;28;20215;-72
2023/08/18 01:10:11;;;;;;;9.40;8.03;;;;;;;20.89;75.06;101152.31;5013546;28;20228;-72
2023/08/18 01:12:43;;;;;;;9.53;8.53;;;;;;;20.85;74.81;101154.97;5013427;28;20211;-72
2023/08/18 01:15:16;;;;;;;9.27;8.10;;;;;;;20.83;74.82;101153.81;5015448;28;20211;-72
2023/08/18 01:17:48;;;;;;;8.67;7.20;;;;;;;20.79;74.96;101148.44;5010502;28;20219;-72
2023/08/18 01:20:15;;;;;;;9.07;7.63;;;;;;;20.74;74.34;101142.69;5016295;28;20318;-71
2023/08/18 01:22:45;;;;;;;9.00;7.50;;;;;;;20.72;74.18;101143.06;5010144;28;20605;-72
2023/08/18 01:25:14;;;;;;;8.47;7.30;;;;;;;20.70;74.33;101147.28;5013325;28;20207;-72
2023/08/18 01:27:41;;;;;;;7.87;7.10;;;;;;;20.66;74.00;101141.13;5015615;28;20217;-72
2023/08/18 01:30:08;;;;;;;8.07;7.30;;;;;;;20.64;74.37;101149.53;5018316;28;20229;-72
2023/08/18 01:32:41;;;;;;;8.93;8.03;;;;;;;20.60;74.23;101151.44;5013570;28;20551;-72
2023/08/18 01:35:10;;;;;;;8.97;8.07;;;;;;;20.57;74.72;101149.53;5016162;28;20243;-72
2023/08/18 01:37:38;;;;;;;9.47;7.67;;;;;;;20.54;74.77;101147.59;5015905;28;20209;-72
2023/08/18 01:40:07;;;;;;;9.43;8.47;;;;;;;20.51;74.90;101147.59;5015216;28;20223;-72
2023/08/18 01:42:36;;;;;;;10.13;8.40;;;;;;;20.48;74.67;101140.31;5017200;28;20205;-72
2023/08/18 01:45:03;;;;;;;9.77;8.17;;;;;;;20.46;74.66;101146.06;5029441;28;20208;-72
2023/08/18 01:47:30;;;;;;;10.40;8.00;;;;;;;20.43;74.89;101138.75;5020227;28;20215;-72
2023/08/18 01:49:57;;;;;;;9.80;7.97;;;;;;;20.41;75.09;101140.25;5011983;28;20211;-71
2023/08/18 01:52:23;;;;;;;11.37;8.00;;;;;;;20.39;75.14;101142.56;5019530;28;20195;-72
2023/08/18 01:54:51;;;;;;;9.67;7.60;;;;;;;20.34;74.49;101143.69;5012957;28;20204;-72
2023/08/18 01:57:18;;;;;;;8.17;6.83;;;;;;;20.30;75.13;101142.13;5017225;28;20216;-72
2023/08/18 01:59:45;;;;;;;8.90;7.30;;;;;;;20.27;75.74;101148.25;5012261;28;20223;-71
2023/08/18 02:02:12;;;;;;;8.10;6.70;;;;;;;20.25;75.34;101145.19;5017259;28;20207;-72
2023/08/18 02:04:40;;;;;;;8.47;7.47;;;;;;;20.22;75.63;101151.28;5015384;28;20223;-71
2023/08/18 02:07:07;;;;;;;9.87;7.33;;;;;;;20.19;75.29;101144.75;5021554;28;20203;-71
2023/08/18 02:09:35;;;;;;;8.13;7.13;;;;;;;20.16;75.69;101145.53;5018055;28;20572;-71
2023/08/18 02:12:02;;;;;;;11.57;7.30;;;;;;;20.13;75.62;101140.16;5012255;28;20678;-72
2023/08/18 02:14:29;;;;;;;9.00;7.37;;;;;;;20.09;75.19;101142.03;5016856;28;20200;-72
2023/08/18 02:16:57;;;;;;;8.20;7.40;;;;;;;20.06;75.93;101143.53;5013927;28;20216;-71
2023/08/18 02:19:24;;;;;;;9.43;8.03;;;;;;;20.03;75.98;101135.47;5017885;28;20235;-72
2023/08/18 02:21:50;;;;;;;8.17;7.17;;;;;;;20.00;75.83;101133.53;5017740;28;20231;-72
2023/08/18 02:24:16;;;;;;;9.80;7.43;;;;;;;19.95;75.82;101131.97;5017633;28;20231;-72
2023/08/18 02:26:43;;;;;;;8.40;7.47;;;;;;;19.93;76.10;101134.25;5018338;28;20235;-72
2023/08/18 02:29:10;;;;;;;9.10;7.93;;;;;;;19.89;75.99;101128.13;5018506;28;20207;-71
2023/08/18 02:31:37;;;;;;;9.27;8.27;;;;;;;19.87;76.26;101132.31;5011721;28;20960;-72
2023/08/18 02:34:04;;;;;;;9.70;8.20;;;;;;;19.84;76.39;101127.69;5016124;28;20289;-72
2023/08/18 02:36:31;;;;;;;11.77;8.53;;;;;;;19.79;76.89;101133.41;5018719;28;20287;-72
2023/08/18 02:38:57;;;;;;;8.67;7.80;;;;;;;19.77;76.94;101127.66;5016962;28;20214;-72
2023/08/18 02:41:24;;;;;;;9.87;8.27;;;;;;;19.72;76.95;101131.44;5019724;28;20232;-72
2023/08/18 02:43:50;;;;;;;11.23;9.03;;;;;;;19.68;77.01;101135.25;5016793;28;20305;-72
2023/08/18 02:46:18;;;;;;;11.77;8.17;;;;;;;19.65;77.01;101127.94;5015284;28;20188;-72
2023/08/18 02:48:44;;;;;;;10.20;8.80;;;;;;;19.61;76.74;101125.25;5018725;28;20759;-72
2023/08/18 02:51:12;;;;;;;11.27;8.77;;;;;;;19.57;76.98;101132.50;5018984;28;20224;-71
2023/08/18 02:53:38;;;;;;;9.90;8.73;;;;;;;19.55;76.72;101128.66;5016915;28;20208;-72
2023/08/18 02:56:05;;;;;;;10.80;9.03;;;;;;;19.52;77.30;101129.41;5011639;28;20204;-71
2023/08/18 02:58:33;;;;;;;11.53;8.50;;;;;;;19.50;77.09;101129.00;5016811;28;20211;-72
2023/08/18 03:01:02;;;;;;;9.43;8.53;;;;;;;19.47;77.52;101127.84;5012051;28;20232;-71
2023/08/18 03:03:28;;;;;;;13.50;8.87;;;;;;;19.45;77.95;101132.78;5016188;28;20208;-72
2023/08/18 03:05:59;;;;;;;16.63;9.17;;;;;;;19.42;77.66;101133.53;5014036;28;20326;-71
2023/08/18 03:08:27;;;;;;;9.27;8.27;;;;;;;19.38;77.44;101130.06;5012930;28;20204;-72
2023/08/18 03:10:57;;;;;;;10.57;9.47;;;;;;;19.36;77.87;101137.69;5013094;28;20216;-71
2023/08/18 03:13:24;;;;;;;12.77;9.93;;;;;;;19.34;77.41;101129.25;5016322;28;20208;-72
2023/08/18 03:15:50;;;;;;;10.97;9.13;;;;;;;19.33;77.16;101132.31;5013806;28;20219;-72
2023/08/18 03:18:17;;;;;;;11.73;9.77;;;;;;;19.29;77.27;101148.34;5015786;28;20193;-72
2023/08/18 03:20:44;;;;;;;10.97;9.33;;;;;;;19.28;77.30;101148.72;5011331;28;20248;-72
2023/08/18 03:23:14;;;;;;;14.33;9.20;;;;;;;19.28;78.42;101148.72;5011734;28;20232;-71
2023/08/18 03:25:42;;;;;;;11.13;9.27;;;;;;;19.26;77.73;101153.69;5015037;28;20567;-72
2023/08/18 03:28:09;;;;;;;10.93;9.53;;;;;;;19.24;77.29;101148.69;5030761;28;20756;-72
2023/08/18 03:30:37;;;;;;;10.73;9.13;;;;;;;19.23;77.51;101157.84;5013825;28;20212;-72
2023/08/18 03:33:04;;;;;;;11.73;9.43;;;;;;;19.24;78.62;101155.97;5012568;28;20206;-72
2023/08/18 03:35:31;;;;;;;10.57;9.43;;;;;;;19.23;78.83;101163.22;5009896;28;20568;-72
2023/08/18 03:37:58;;;;;;;10.47;9.30;;;;;;;19.22;78.44;101159.00;5015797;28;20205;-72
2023/08/18 03:40:25;;;;;;;11.23;8.77;;;;;;;19.20;78.37;101155.88;5012892;28;20216;-71
2023/08/18 03:42:52;;;;;;;9.50;8.50;;;;;;;19.20;78.89;101163.16;5011441;28;20230;-72
2023/08/18 03:45:19;;;;;;;10.40;9.20;;;;;;;19.20;79.88;101168.50;5015099;28;20565;-72
2023/08/18 03:47:45;;;;;;;12.80;9.17;;;;;;;19.18;78.81;101163.53;5008982;28;20204;-72
2023/08/18 03:50:13;;;;;;;11.50;9.13;;;;;;;19.18;79.30;101166.19;5013111;28;20457;-71
2023/08/18 03:52:40;;;;;;;12.83;9.33;;;;;;;19.17;78.94;101172.69;5009746;28;20204;-72
2023/08/18 03:55:09;;;;;;;12.93;9.57;;;;;;;19.18;79.31;101171.56;5013016;28;20725;-72
2023/08/18 03:57:35;;;;;;;11.60;8.57;;;;;;;19.18;79.07;101178.81;5011395;28;20208;-72
2023/08/18 04:00:04;;;;;;;12.10;10.03;;;;;;;19.17;79.21;101186.09;5012722;28;20215;-71
2023/08/18 04:02:40;;;;;;;11.50;9.27;;;;;;;19.17;78.97;101178.06;5016756;28;20252;-71
2023/08/18 04:05:08;;;;;;;11.70;9.93;;;;;;;19.18;78.85;101187.63;5015421;28;20219;-72
2023/08/18 04:07:35;;;;;;;10.67;9.43;;;;;;;19.18;79.08;101186.84;5015628;28;20203;-72
2023/08/18 04:10:01;;;;;;;11.50;9.80;;;;;;;19.20;79.08;101187.25;5013012;28;20575;-72
2023/08/18 04:12:28;;;;;;;13.37;10.27;;;;;;;19.21;79.86;101189.59;5013675;28;20204;-71
2023/08/18 04:14:54;;;;;;;10.57;9.43;;;;;;;19.23;78.95;101194.56;5013474;28;20208;-71
2023/08/18 04:17:22;;;;;;;11.40;10.00;;;;;;;19.25;79.39;101193.06;5013208;28;20204;-72
2023/08/18 04:19:48;;;;;;;10.80;9.70;;;;;;;19.27;78.33;101201.50;5012205;28;20270;-72
2023/08/18 04:22:15;;;;;;;11.67;10.07;;;;;;;19.31;79.71;101193.50;5031657;28;20224;-71
2023/08/18 04:24:41;;;;;;;14.37;10.53;;;;;;;19.34;78.87;101206.91;5031348;28;20188;-72
2023/08/18 04:27:08;;;;;;;11.20;9.70;;;;;;;19.38;78.87;101210.41;5015049;28;20767;-72
2023/08/18 04:29:34;;;;;;;11.77;10.27;;;;;;;19.42;78.86;101205.09;5013317;28;20239;-71
2023/08/18 04:32:00;;;;;;;13.83;10.77;;;;;;;19.47;79.43;101208.22;5012521;28;20792;-72
2023/08/18 04:34:30;;;;;;;11.63;10.33;;;;;;;19.51;79.79;101208.97;5014418;28;20214;-72
2023/08/18 04:36:56;;;;;;;11.77;10.33;;;;;;;19.56;79.48;101208.66;5014414;28;20228;-72
2023/08/18 04:39:23;;;;;;;11.57;9.73;;;;;;;19.60;79.36;101209.44;5012397;28;20291;-71
2023/08/18 04:41:49;;;;;;;14.63;10.07;;;;;;;19.66;79.36;101215.25;5011302;28;20815;-71
2023/08/18 04:44:15;;;;;;;11.57;9.67;;;;;;;19.70;79.26;101205.31;5012969;28;21585;-72
2023/08/18 04:46:42;;;;;;;11.77;9.77;;;;;;;19.75;78.80;101208.44;5011388;28;20212;-72
2023/08/18 04:49:13;;;;;;;11.77;9.73;;;;;;;19.82;78.87;101215.75;5009868;28;20710;-72
2023/08/18 04:51:41;;;;;;;11.70;9.80;;;;;;;19.86;78.46;101205.84;5009827;28;20209;-72
2023/08/18 04:54:07;;;;;;;13.40;10.20;;;;;;;19.92;78.15;101209.72;5009752;28;20222;-72
2023/08/18 04:56:34;;;;;;;11.63;9.30;;;;;;;19.98;78.92;101203.59;5011819;28;20192;-72
2023/08/18 04:59:00;;;;;;;10.07;8.70;;;;;;;20.04;78.58;101207.50;5008619;28;20291;-72
2023/08/18 05:01:27;;;;;;;10.73;9.17;;;;;;;20.10;79.31;101205.25;5027264;28;20311;-72
2023/08/18 05:03:54;;;;;;;10.07;9.07;;;;;;;20.16;79.13;101206.44;5008461;28;20690;-72
2023/08/18 05:06:20;;;;;;;11.47;8.47;;;;;;;20.24;79.08;101205.34;5012920;28;20886;-72
2023/08/18 05:08:48;;;;;;;11.50;9.40;;;;;;;20.31;79.06;101202.69;5010558;28;20192;-72
2023/08/18 05:11:14;;;;;;;9.67;8.50;;;;;;;20.38;78.21;101200.81;5010143;28;20693;-72
2023/08/18 05:13:42;;;;;;;12.17;9.67;;;;;;;20.44;77.62;101204.66;5013294;28;20274;-72
2023/08/18 05:16:09;;;;;;;10.67;8.87;;;;;;;20.50;77.30;101208.53;5008616;28;20239;-71
2023/08/18 05:18:37;;;;;;;11.67;8.83;;;;;;;20.56;77.10;101208.94;5015733;28;20209;-72
2023/08/18 05:21:03;;;;;;;12.20;9.10;;;;;;;20.64;77.20;101205.91;5009456;28;20674;-72
2023/08/18 05:23:31;;;;;;;10.70;9.47;;;;;;;20.71;77.14;101208.63;5008321;28;20220;-72
2023/08/18 05:25:59;;;;;;;10.83;9.20;;;;;;;20.80;77.06;101205.59;5010315;28;20211;-72
2023/08/18 05:28:28;;;;;;;9.90;8.90;;;;;;;20.86;76.57;101207.50;5009136;28;20204;-72
2023/08/18 05:30:54;;;;;;;9.37;8.30;;;;;;;20.93;76.14;101199.53;5008315;28;20310;-72
2023/08/18 05:33:21;;;;;;;13.87;10.10;;;;;;;21.02;75.64;101215.28;5015113;28;20214;-72
2023/08/18 05:35:48;;;;;;;12.40;9.23;;;;;;;21.09;75.14;101209.91;5012456;28;20219;-72
2023/08/18 05:38:14;;;;;;;15.23;8.20;;;;;;;21.16;75.53;101208.00;5010859;28;20580;-72
2023/08/18 05:40:45;;;;;;;11.77;9.57;;;;;;;21.23;75.08;101204.56;5012806;28;20228;-72
2023/08/18 05:43:14;;;;;;;13.93;9.07;;;;;;;21.31;74.78;101203.44;5010890;28;20733;-72
2023/08/18 05:45:42;;;;;;;11.93;8.77;;;;;;;21.39;74.79;101202.28;5013539;28;20639;-72
2023/08/18 05:48:08;;;;;;;11.53;9.60;;;;;;;21.46;74.51;101204.97;5010623;28;20204;-72
2023/08/18 05:50:34;;;;;;;10.97;8.97;;;;;;;21.52;74.33;101204.22;5008333;28;20223;-72
2023/08/18 05:53:02;;;;;;;15.33;8.87;;;;;;;21.58;73.99;101199.97;5009560;28;20666;-72
2023/08/18 05:55:29;;;;;;;10.53;8.67;;;;;;;21.66;73.96;101211.50;5015265;28;20569;-72
2023/08/18 05:57:58;;;;;;;9.60;8.30;;;;;;;21.72;73.61;101212.69;5012907;28;20211;-72
2023/08/18 06:00:26;;;;;;;10.35;8.32;;;;;;;21.79;73.71;101212.69;5029472;28;20792;-72
2023/08/18 06:02:54;;;;;;;10.25;9.15;;;;;;;21.84;72.53;101210.38;5011423;28;20208;-72
2023/08/18 06:05:20;;;;;;;13.85;8.68;;;;;;;21.89;72.88;101207.28;5013244;28;20208;-72
2023/08/18 06:07:47;;;;;;;8.43;7.63;;;;;;;21.93;72.92;101208.06;5013438;28;20201;-72
2023/08/18 06:10:13;;;;;;;10.80;8.93;;;;;;;21.99;72.36;101208.44;5015055;28;20220;-71
2023/08/18 06:12:40;;;;;;;11.10;8.90;;;;;;;22.00;72.21;101201.91;5009705;28;20623;-72
2023/08/18 06:15:08;;;;;;;10.85;8.93;;;;;;;22.05;72.18;101206.91;5014924;28;20208;-72
2023/08/18 06:17:36;;;;;;;10.50;8.70;;;;;;;22.08;72.06;101201.50;5015527;28;20200;-72
2023/08/18 06:20:02;;;;;;;11.52;9.45;;;;;;;22.13;72.29;101209.19;5015844;28;20224;-72
2023/08/18 06:22:28;;;;;;;8.82;7.80;;;;;;;22.16;71.98;101200.34;5013319;28;20215;-71
2023/08/18 06:24:55;;;;;;;10.07;8.95;;;;;;;22.21;72.05;101208.03;5014520;28;20205;-72
2023/08/18 06:27:21;;;;;;;9.70;8.70;;;;;;;22.25;71.75;101199.94;5015770;28;20212;-72
2023/08/18 06:29:47;;;;;;;10.38;8.95;;;;;;;22.28;71.56;101205.31;5013533;28;20239;-72
2023/08/18 06:32:14;;;;;;;10.35;8.65;;;;;;;22.33;71.42;101196.06;5018219;28;20211;-72
2023/08/18 06:34:42;;;;;;;10.00;8.48;;;;;;;22.37;71.67;101204.88;5013302;28;20200;-72
2023/08/18 06:37:09;;;;;;;13.00;8.95;;;;;;;22.40;70.95;101206.81;5019824;28;20203;-72
2023/08/18 06:39:35;;;;;;;10.18;8.45;;;;;;;22.42;69.93;101207.19;5004037;28;20623;-72
2023/08/18 06:42:01;;;;;;;10.27;8.45;;;;;;;22.43;70.48;101201.41;5009461;28;20225;-72
2023/08/18 06:44:28;;;;;;;11.32;8.73;;;;;;;22.45;70.95;101198.38;5015315;28;20203;-71
2023/08/18 06:46:54;;;;;;;11.88;8.43;;;;;;;22.47;70.47;101198.72;5013014;28;20760;-72
2023/08/18 06:49:20;;;;;;;11.75;8.70;;;;;;;22.51;70.30;101204.88;5020338;28;20216;-72
2023/08/18 06:51:48;;;;;;;9.82;8.43;;;;;;;22.52;70.30;101195.63;5020247;28;20211;-71
2023/08/18 06:54:14;;;;;;;9.50;8.43;;;;;;;22.55;70.57;101194.88;5018003;28;20764;-72
2023/08/18 06:56:40;;;;;;;11.07;8.02;;;;;;;22.58;70.38;101196.75;5019620;28;20265;-71
2023/08/18 06:59:07;;;;;;;10.90;8.70;;;;;;;22.62;70.64;101198.28;5015782;28;20677;-72
2023/08/18 07:01:33;;;;;;;10.32;8.13;;;;;;;22.65;70.83;101197.50;5015211;28;20208;-73
2023/08/18 07:03:59;;;;;;;10.60;7.70;;;;;;;22.69;70.17;101192.88;5017093;28;20222;-72
2023/08/18 07:06:26;;;;;;;12.38;7.40;;;;;;;22.72;69.72;101194.75;5014116;28;20247;-72
2023/08/18 07:08:53;;;;;;;8.32;7.05;;;;;;;22.76;69.54;101190.13;5016140;28;20200;-72
2023/08/18 07:11:20;;;;;;;7.32;6.60;;;;;;;22.80;68.03;101190.13;5016841;28;20230;-72
2023/08/18 07:13:46;;;;;;;7.88;7.00;;;;;;;22.84;68.23;101191.66;5018127;28;20214;-72
2023/08/18 07:16:12;;;;;;;8.57;7.13;;;;;;;22.90;68.51;101200.06;5012265;28;20231;-71
2023/08/18 07:18:39;;;;;;;7.63;6.80;;;;;;;22.96;68.66;101201.19;5018992;28;20204;-72
2023/08/18 07:21:05;;;;;;;10.70;7.35;;;;;;;23.01;68.57;101195.38;5015017;28;20645;-71
2023/08/18 07:23:31;;;;;;;8.38;7.38;;;;;;;23.06;68.95;101195.75;5015696;28;20220;-72
2023/08/18 07:25:59;;;;;;;10.38;7.28;;;;;;;23.12;68.00;101194.16;5018026;28;20212;-72
2023/08/18 07:28:26;;;;;;;10.95;7.35;;;;;;;23.18;68.69;101199.94;5017886;28;20213;-71
2023/08/18 07:30:52;;;;;;;8.73;6.57;;;;;;;23.22;68.39;101203.34;5017354;28;20235;-71
2023/08/18 07:33:18;;;;;;;10.18;6.55;;;;;;;23.29;67.81;101190.59;5012588;28;20219;-72
2023/08/18 07:35:45;;;;;;;8.48;6.22;;;;;;;23.36;67.28;101199.81;5017118;28;20208;-71
2023/08/18 07:38:11;;;;;;;7.18;6.47;;;;;;;23.42;67.38;101188.97;5015969;28;20698;-72
2023/08/18 07:40:38;;;;;;;7.82;6.25;;;;;;;23.48;66.57;101191.25;5017419;28;20220;-72
2023/08/18 07:43:05;;;;;;;6.85;6.03;;;;;;;23.53;66.93;101184.25;5017156;28;20232;-71
2023/08/18 07:45:32;;;;;;;8.15;6.30;;;;;;;23.62;67.61;101188.44;5016472;28;20211;-72
2023/08/18 07:47:59;;;;;;;7.88;5.40;;;;;;;23.68;66.71;101198.38;5015170;28;20589;-72
2023/08/18 07:50:25;;;;;;;7.22;5.10;;;;;;;23.75;65.28;101190.25;5017474;28;20298;-71
2023/08/18 07:52:51;;;;;;;6.68;5.13;;;;;;;23.83;65.19;101199.03;5016859;28;20200;-71
2023/08/18 07:55:21;;;;;;;6.38;5.25;;;;;;;23.91;65.53;101195.91;5014561;28;20196;-72
2023/08/18 07:57:47;;;;;;;5.90;5.32;;;;;;;23.99;64.76;101196.59;5015697;28;20207;-72
2023/08/18 08:00:16;;;;;;;6.82;5.57;;;;;;;24.07;64.77;101198.03;5013486;28;20234;-71
2023/08/18 08:02:43;;;;;;;7.55;5.68;;;;;;;24.14;65.02;101201.44;5015863;28;20302;-71
2023/08/18 08:05:10;;;;;;;7.57;5.43;;;;;;;24.23;65.33;101203.66;5012607;28;20227;-72
2023/08/18 08:07:36;;;;;;;8.10;5.60;;;;;;;24.29;64.11;101205.50;5015776;28;20571;-71
2023/08/18 08:10:03;;;;;;;7.63;5.45;;;;;;;24.37;64.21;101192.69;5015591;28;20228;-72
2023/08/18 08:12:30;;;;;;;5.65;5.15;;;;;;;24.44;64.38;101193.38;5018570;28;20204;-71
2023/08/18 08:14:56;;;;;;;5.45;4.93;;;;;;;24.51;64.21;101201.38;5018626;28;20231;-71
2023/08/18 08:17:24;;;;;;;5.55;4.80;;;;;;;24.59;62.58;101194.00;5011233;28;20641;-71
2023/08/18 08:19:51;;;;;;;5.63;4.50;;;;;;;24.64;63.30;101193.53;5013225;28;20409;-71
2023/08/18 08:22:17;;;;;;;6.78;4.50;;;;;;;24.72;62.90;101189.59;5012681;28;20486;-72
2023/08/18 08:24:45;;;;;;;6.18;4.72;;;;;;;24.80;62.44;101191.78;5014712;28;20224;-72
2023/08/18 08:27:11;;;;;;;5.85;5.13;;;;;;;24.87;62.88;101193.63;5016591;28;20586;-72
2023/08/18 08:29:37;;;;;;;5.72;5.10;;;;;;;24.94;62.49;101201.63;5017118;28;20224;-72
2023/08/18 08:32:04;;;;;;;5.45;4.85;;;;;;;25.03;62.73;101199.94;5012127;28;20203;-71
2023/08/18 08:34:31;;;;;;;5.65;5.03;;;;;;;25.09;61.80;101201.03;5011859;28;20227;-72
2023/08/18 08:36:58;;;;;;;5.55;5.05;;;;;;;25.18;60.60;101203.22;5015357;28;20671;-71
2023/08/18 08:39:24;;;;;;;7.13;5.43;;;;;;;25.23;60.53;101205.47;5015398;28;20244;-71
2023/08/18 08:41:51;;;;;;;6.93;5.28;;;;;;;25.29;58.63;101203.84;5018513;28;20200;-70
2023/08/18 08:44:17;;;;;;;5.60;5.00;;;;;;;25.36;60.37;101214.56;5018280;28;20204;-72
2023/08/18 08:46:44;;;;;;;5.35;4.85;;;;;;;25.42;60.78;101213.69;5016348;28;20212;-72
2023/08/18 08:49:13;;;;;;;6.85;5.40;;;;;;;25.48;58.50;101216.69;5011861;28;20207;-71
2023/08/18 08:51:44;;;;;;;6.10;5.43;;;;;;;25.55;60.71;101211.94;5014273;28;20204;-72
2023/08/18 08:54:14;;;;;;;5.80;5.10;;;;;;;25.61;60.66;101220.34;5010893;28;20635;-72
2023/08/18 08:56:43;;;;;;;5.43;4.90;;;;;;;25.66;60.12;101226.06;5016362;28;20204;-72
2023/08/18 08:59:10;;;;;;;7.82;5.07;;;;;;;25.72;59.13;101213.59;5014349;28;20196;-72
2023/08/18 09:01:37;;;;;;;5.10;4.60;;;;;;;25.80;60.41;101216.94;5013812;28;20217;-72
2023/08/18 09:04:05;;;;;;;6.03;5.22;;;;;;;25.88;59.87;101219.09;5016051;28;20721;-71
2023/08/18 09:06:31;;;;;;;5.57;5.07;;;;;;;25.94;60.59;101214.75;5017312;28;20204;-71
2023/08/18 09:09:00;;;;;;;5.47;4.95;;;;;;;26.02;60.55;101226.22;5011021;28;20539;-71
2023/08/18 09:11:39;;;;;;;6.00;5.40;;;;;;;26.08;58.56;101211.81;5008921;28;20572;-71
2023/08/18 09:14:05;;;;;;;5.97;5.47;;;;;;;26.13;58.25;101219.44;5015920;28;20204;-71
2023/08/18 09:16:32;;;;;;;5.32;4.82;;;;;;;26.20;58.75;101213.16;5017551;28;20558;-71
2023/08/18 09:18:58;;;;;;;6.70;5.22;;;;;;;26.24;57.23;101216.53;5015143;28;20455;-72
2023/08/18 09:21:24;;;;;;;7.05;4.82;;;;;;;26.28;57.63;101214.53;5016623;28;20232;-71
2023/08/18 09:23:55;;;;;;;6.82;6.13;;;;;;;26.34;57.53;101210.91;5015661;28;20227;-71
2023/08/18 09:26:23;;;;;;;6.63;5.45;;;;;;;26.43;58.67;101213.06;5016363;28;20204;-70
2023/08/18 09:28:49;;;;;;;6.10;5.50;;;;;;;26.49;57.21;101211.41;5016386;28;20235;-70
2023/08/18 09:31:15;;;;;;;5.30;4.85;;;;;;;26.55;58.01;101209.72;5013909;28;20216;-71
2023/08/18 09:33:42;;;;;;;5.80;5.25;;;;;;;26.63;57.39;101201.06;5013817;28;20203;-72
2023/08/18 09:36:12;;;;;;;5.85;5.13;;;;;;;26.67;57.36;101192.88;5014832;28;20211;-72
2023/08/18 09:38:39;;;;;;;5.68;5.18;;;;;;;26.71;57.36;101193.53;5011940;28;20201;-72
2023/08/18 09:41:05;;;;;;;6.72;5.50;;;;;;;26.77;57.27;101195.34;5012047;28;20240;-71
2023/08/18 09:43:33;;;;;;;5.63;5.13;;;;;;;26.83;56.50;101190.19;5011615;28;22553;-71
2023/08/18 09:46:03;;;;;;;5.28;4.70;;;;;;;26.90;55.95;101193.50;5015435;28;20301;-71
2023/08/18 09:48:34;;;;;;;5.60;4.50;;;;;;;26.98;57.19;101194.88;5018846;28;20242;-72
2023/08/18 09:51:01;;;;;;;6.07;4.85;;;;;;;27.05;54.75;101193.94;5014830;28;20286;-71
2023/08/18 09:53:31;;;;;;;5.40;4.72;;;;;;;27.09;54.61;101200.81;5017364;28;23187;-72
2023/08/18 09:56:03;;;;;;;5.78;4.75;;;;;;;27.15;53.80;101190.97;5013168;28;20254;-71
2023/08/18 09:58:35;;;;;;;5.45;4.78;;;;;;;27.23;54.76;101203.22;5016622;28;20809;-72
2023/08/18 10:01:04;;;;;;;5.78;4.97;;;;;;;27.26;53.41;101198.91;5017637;28;20234;-72
2023/08/18 10:03:31;;;;;;;6.45;4.35;;;;;;;27.33;54.35;101193.31;5018951;28;20298;-71
2023/08/18 10:06:00;;;;;;;5.55;4.63;;;;;;;27.37;55.13;101186.63;5016948;28;20285;-72
2023/08/18 10:08:27;;;;;;;8.32;4.90;;;;;;;27.47;55.40;101192.97;5021308;28;20227;-72
2023/08/18 10:10:53;;;;;;;5.22;4.72;;;;;;;27.55;54.09;101186.19;5019415;28;20234;-71
2023/08/18 10:13:20;;;;;;;5.30;4.80;;;;;;;27.61;53.84;101187.19;5017089;28;20391;-72
2023/08/18 10:15:48;;;;;;;5.00;4.50;;;;;;;27.67;55.35;101196.34;5020564;28;20211;-71
2023/08/18 10:18:16;;;;;;;5.25;4.75;;;;;;;27.72;51.88;101183.00;5015055;28;20203;-71
2023/08/18 10:20:50;;;;;;;5.28;4.78;;;;;;;27.78;51.90;101185.97;5019207;28;20234;-72
2023/08/18 10:23:17;;;;;;;6.75;4.57;;;;;;;27.84;53.13;101174.19;5016451;28;20779;-72
2023/08/18 10:25:44;;;;;;;4.85;4.25;;;;;;;27.88;53.61;101176.81;5016550;28;20701;-72
2023/08/18 10:28:17;;;;;;;4.38;3.97;;;;;;;27.93;51.71;101182.50;5015692;28;20200;-71
2023/08/18 10:30:52;;;;;;;5.85;4.47;;;;;;;27.99;53.30;101180.00;5015561;28;20282;-71
2023/08/18 10:33:28;;;;;;;5.32;4.88;;;;;;;28.00;51.08;101167.94;5014144;28;20235;-72
2023/08/18 10:35:57;;;;;;;5.40;4.63;;;;;;;28.03;52.72;101167.09;5008861;28;20214;-71
2023/08/18 10:38:28;;;;;;;5.55;4.95;;;;;;;28.09;53.28;101173.53;5012840;28;20211;-72
2023/08/18 10:40:54;;;;;;;4.70;4.30;;;;;;;28.14;53.40;101164.84;5014561;28;20275;-72
2023/08/18 10:43:20;;;;;;;4.57;4.18;;;;;;;28.17;51.68;101164.75;5011437;28;20219;-71
2023/08/18 10:45:52;;;;;;;5.60;3.92;;;;;;;28.24;49.66;101163.78;5015820;28;20200;-71
2023/08/18 10:48:18;;;;;;;5.50;4.40;;;;;;;28.29;50.97;101168.69;5017844;28;20210;-72
2023/08/18 10:50:46;;;;;;;8.32;4.43;;;;;;;28.32;49.47;101157.72;5013445;28;20224;-72
2023/08/18 10:53:12;;;;;;;6.00;4.28;;;;;;;28.39;50.87;101165.69;5005629;28;20214;-72
2023/08/18 10:55:39;;;;;;;5.30;4.80;;;;;;;28.43;50.28;101166.34;5010178;28;20215;-72
2023/08/18 10:58:06;;;;;;;4.40;4.00;;;;;;;28.47;51.18;101153.44;5014746;28;20737;-72
2023/08/18 11:00:34;;;;;;;4.60;4.20;;;;;;;28.49;51.24;101167.34;5011993;28;20228;-72
2023/08/18 11:03:03;;;;;;;4.82;3.95;;;;;;;28.56;50.38;101153.56;5014460;28;20221;-72
2023/08/18 11:05:31;;;;;;;6.60;4.15;;;;;;;28.65;50.99;101155.63;5012711;28;20591;-72
2023/08/18 11:07:58;;;;;;;4.13;3.72;;;;;;;28.71;49.59;101149.22;5010796;28;20246;-72
2023/08/18 11:10:25;;;;;;;5.88;4.18;;;;;;;28.80;49.12;101154.00;5013353;28;20235;-72
2023/08/18 11:12:53;;;;;;;5.15;4.50;;;;;;;28.85;48.68;101146.03;5012674;28;20215;-72
2023/08/18 11:15:21;;;;;;;5.82;4.65;;;;;;;28.94;49.48;101150.81;5007944;28;20298;-73
2023/08/18 11:17:48;;;;;;;5.95;3.95;;;;;;;29.01;49.00;101147.94;5010371;28;20204;-72
2023/08/18 11:20:16;;;;;;;4.10;3.80;;;;;;;29.07;48.61;101151.63;5009883;28;20224;-71
2023/08/18 11:22:47;;;;;;;4.25;3.85;;;;;;;29.12;46.07;101146.41;5009045;28;20215;-72